sensor_id;sensor_type;location;lat;lon;timestamp;pressure;altitude;pressure_sealevel;temperature;humidity
52983;BME280;48698;45.736;13.926;2023-02-28T00:03:13;97889.06;;;-0.91;100.00
52983;BME280;48698;45.736;13.926;2023-02-28T00:08:16;97956.84;;;-0.73;100.00
52983;BME280;48698;45.736;13.926;2023-02-28T00:13:30;97900.41;;;-1.12;100.00
52983;BME280;48698;45.736;13.926;2023-02-28T00:18:34;97757.25;;;-2.03;100.00
52983;BME280;48698;45.736;13.926;2023-02-28T00:23:37;97924.72;;;-1.04;100.00
52983;BME280;48698;45.736;13.926;2023-02-28T00:28:41;97977.72;;;-0.73;100.00
52983;BME280;48698;45.736;13.926;2023-02-28T00:33:44;98022.00;;;-0.50;100.00
52983;BME280;48698;45.736;13.926;2023-02-28T00:38:48;98017.69;;;-0.68;100.00
52983;BME280;48698;45.736;13.926;2023-02-28T00:43:52;98054.16;;;-0.35;100.00
52983;BME280;48698;45.736;13.926;2023-02-28T00:48:55;98061.13;;;-0.43;100.00
52983;BME280;48698;45.736;13.926;2023-02-28T00:53:59;97812.75;;;-1.87;100.00
52983;BME280;48698;45.736;13.926;2023-02-28T00:59:02;98000.31;;;-0.81;100.00
52983;BME280;48698;45.736;13.926;2023-02-28T01:04:06;97918.66;;;-1.15;100.00
52983;BME280;48698;45.736;13.926;2023-02-28T01:09:10;98095.91;;;-0.29;100.00
52983;BME280;48698;45.736;13.926;2023-02-28T01:14:16;97964.69;;;-0.87;100.00
52983;BME280;48698;45.736;13.926;2023-02-28T01:19:19;98040.25;;;-0.47;100.00
52983;BME280;48698;45.736;13.926;2023-02-28T01:24:23;98062.84;;;-0.34;100.00
52983;BME280;48698;45.736;13.926;2023-02-28T01:29:26;97969.91;;;-0.84;100.00
52983;BME280;48698;45.736;13.926;2023-02-28T01:34:30;98031.56;;;-0.43;100.00
52983;BME280;48698;45.736;13.926;2023-02-28T01:39:34;98091.53;;;-0.22;100.00
52983;BME280;48698;45.736;13.926;2023-02-28T01:45:01;98079.34;;;-0.26;100.00
52983;BME280;48698;45.736;13.926;2023-02-28T01:50:09;98049.78;;;-0.25;100.00
52983;BME280;48698;45.736;13.926;2023-02-28T01:55:18;98093.28;;;-0.29;100.00
52983;BME280;48698;45.736;13.926;2023-02-28T02:00:25;98083.72;;;-0.30;100.00
52983;BME280;48698;45.736;13.926;2023-02-28T02:05:33;98030.72;;;-0.67;100.00
52983;BME280;48698;45.736;13.926;2023-02-28T02:10:46;98081.13;;;-0.31;100.00
52983;BME280;48698;45.736;13.926;2023-02-28T02:38:53;98047.25;;;-0.68;100.00
52983;BME280;48698;45.736;13.926;2023-02-28T02:49:24;98091.56;;;-0.27;100.00
52983;BME280;48698;45.736;13.926;2023-02-28T02:54:35;98110.69;;;-0.28;100.00
52983;BME280;48698;45.736;13.926;2023-02-28T02:59:41;98015.94;;;-0.68;100.00
52983;BME280;48698;45.736;13.926;2023-02-28T03:04:51;98018.56;;;-0.89;100.00
52983;BME280;48698;45.736;13.926;2023-02-28T03:09:56;98067.19;;;-0.39;100.00
52983;BME280;48698;45.736;13.926;2023-02-28T03:15:12;97974.22;;;-0.78;100.00
52983;BME280;48698;45.736;13.926;2023-02-28T03:25:59;98043.75;;;-0.44;100.00
52983;BME280;48698;45.736;13.926;2023-02-28T03:31:28;98011.59;;;-0.57;100.00
52983;BME280;48698;45.736;13.926;2023-02-28T03:36:44;98062.84;;;-0.25;100.00
52983;BME280;48698;45.736;13.926;2023-02-28T03:41:54;97961.19;;;-0.80;100.00
52983;BME280;48698;45.736;13.926;2023-02-28T03:47:04;98055.00;;;-0.33;100.00
52983;BME280;48698;45.736;13.926;2023-02-28T03:52:11;97936.88;;;-0.88;100.00
52983;BME280;48698;45.736;13.926;2023-02-28T03:57:27;98064.56;;;-0.18;100.00
52983;BME280;48698;45.736;13.926;2023-02-28T04:02:34;97977.69;;;-0.75;100.00
52983;BME280;48698;45.736;13.926;2023-02-28T04:07:38;97968.13;;;-0.82;100.00
52983;BME280;48698;45.736;13.926;2023-02-28T04:12:41;97921.25;;;-0.94;100.00
52983;BME280;48698;45.736;13.926;2023-02-28T04:17:44;98068.94;;;-0.20;100.00
52983;BME280;48698;45.736;13.926;2023-02-28T04:22:50;98028.94;;;-0.39;100.00
52983;BME280;48698;45.736;13.926;2023-02-28T04:27:53;97974.22;;;-0.71;100.00
52983;BME280;48698;45.736;13.926;2023-02-28T04:32:57;97951.66;;;-0.90;100.00
52983;BME280;48698;45.736;13.926;2023-02-28T04:38:00;98089.81;;;-0.17;100.00
52983;BME280;48698;45.736;13.926;2023-02-28T04:43:03;98091.53;;;-0.15;100.00
52983;BME280;48698;45.736;13.926;2023-02-28T04:48:07;98049.75;;;-0.16;100.00
52983;BME280;48698;45.736;13.926;2023-02-28T04:53:16;97993.31;;;-0.58;100.00
52983;BME280;48698;45.736;13.926;2023-02-28T04:58:20;98030.69;;;-0.48;100.00
52983;BME280;48698;45.736;13.926;2023-02-28T05:03:26;97959.47;;;-0.84;100.00
52983;BME280;48698;45.736;13.926;2023-02-28T05:08:29;97770.22;;;-1.88;100.00
52983;BME280;48698;45.736;13.926;2023-02-28T05:13:34;98061.06;;;-0.16;100.00
52983;BME280;48698;45.736;13.926;2023-02-28T05:18:39;98090.63;;;-0.06;100.00
52983;BME280;48698;45.736;13.926;2023-02-28T05:23:42;97977.66;;;-0.58;100.00
52983;BME280;48698;45.736;13.926;2023-02-28T05:28:49;98043.72;;;-0.36;100.00
52983;BME280;48698;45.736;13.926;2023-02-28T05:33:52;97953.38;;;-0.86;100.00
52983;BME280;48698;45.736;13.926;2023-02-28T05:38:56;98081.97;;;-0.17;100.00
52983;BME280;48698;45.736;13.926;2023-02-28T05:43:59;98078.44;;;-0.06;100.00
52983;BME280;48698;45.736;13.926;2023-02-28T05:49:13;97883.94;;;-1.37;100.00
52983;BME280;48698;45.736;13.926;2023-02-28T05:54:17;98000.28;;;-0.66;100.00
52983;BME280;48698;45.736;13.926;2023-02-28T05:59:20;97897.81;;;-1.47;100.00
52983;BME280;48698;45.736;13.926;2023-02-28T06:04:24;97982.03;;;-0.83;100.00
52983;BME280;48698;45.736;13.926;2023-02-28T06:09:33;98105.47;;;-0.20;100.00
52983;BME280;48698;45.736;13.926;2023-02-28T06:14:37;98002.91;;;-0.89;100.00
52983;BME280;48698;45.736;13.926;2023-02-28T06:19:40;98123.72;;;-0.16;100.00
52983;BME280;48698;45.736;13.926;2023-02-28T06:24:44;98034.19;;;-0.60;100.00
52983;BME280;48698;45.736;13.926;2023-02-28T06:29:48;98112.44;;;-0.31;100.00
52983;BME280;48698;45.736;13.926;2023-02-28T06:35:02;97975.09;;;-1.02;100.00
52983;BME280;48698;45.736;13.926;2023-02-28T06:40:06;98115.91;;;-0.17;100.00
52983;BME280;48698;45.736;13.926;2023-02-28T06:45:11;98095.94;;;-0.33;100.00
52983;BME280;48698;45.736;13.926;2023-02-28T06:50:15;98058.50;;;-0.49;100.00
52983;BME280;48698;45.736;13.926;2023-02-28T06:55:22;98100.28;;;-0.41;100.00
52983;BME280;48698;45.736;13.926;2023-02-28T07:00:26;97925.63;;;-1.43;100.00
52983;BME280;48698;45.736;13.926;2023-02-28T07:05:30;98117.63;;;-0.22;100.00
52983;BME280;48698;45.736;13.926;2023-02-28T07:10:33;98095.03;;;-0.35;100.00
52983;BME280;48698;45.736;13.926;2023-02-28T07:15:37;97906.50;;;-1.56;100.00
52983;BME280;48698;45.736;13.926;2023-02-28T07:20:45;98000.28;;;-0.68;100.00
52983;BME280;48698;45.736;13.926;2023-02-28T07:25:50;98094.13;;;-0.19;100.00
52983;BME280;48698;45.736;13.926;2023-02-28T07:30:53;98111.53;;;-0.02;100.00
52983;BME280;48698;45.736;13.926;2023-02-28T07:36:02;98181.97;;;0.36;100.00
52983;BME280;48698;45.736;13.926;2023-02-28T07:41:05;98011.56;;;-0.50;100.00
52983;BME280;48698;45.736;13.926;2023-02-28T07:46:11;98160.16;;;0.43;100.00
52983;BME280;48698;45.736;13.926;2023-02-28T07:51:15;97942.09;;;-1.06;100.00
52983;BME280;48698;45.736;13.926;2023-02-28T07:56:18;98147.91;;;0.58;100.00
52983;BME280;48698;45.736;13.926;2023-02-28T08:01:22;98177.47;;;0.70;100.00
52983;BME280;48698;45.736;13.926;2023-02-28T08:06:26;97955.88;;;-0.39;100.00
52983;BME280;48698;45.736;13.926;2023-02-28T08:11:29;97871.66;;;-0.89;100.00
52983;BME280;48698;45.736;13.926;2023-02-28T08:16:33;98147.81;;;0.77;100.00
52983;BME280;48698;45.736;13.926;2023-02-28T08:21:39;98165.16;;;1.02;100.00
52983;BME280;48698;45.736;13.926;2023-02-28T08:26:43;97981.09;;;-0.30;100.00
52983;BME280;48698;45.736;13.926;2023-02-28T08:31:53;98076.50;;;0.46;100.00
52983;BME280;48698;45.736;13.926;2023-02-28T08:36:57;98078.25;;;0.52;100.00
52983;BME280;48698;45.736;13.926;2023-02-28T08:42:00;97921.09;;;-0.45;100.00
52983;BME280;48698;45.736;13.926;2023-02-28T08:47:10;98067.91;;;0.23;100.00
52983;BME280;48698;45.736;13.926;2023-02-28T08:52:14;98172.91;;;1.13;100.00
52983;BME280;48698;45.736;13.926;2023-02-28T08:57:17;97915.03;;;-0.52;100.00
52983;BME280;48698;45.736;13.926;2023-02-28T09:02:21;98090.47;;;0.45;100.00
52983;BME280;48698;45.736;13.926;2023-02-28T09:07:25;97949.41;;;0.38;100.00
52983;BME280;48698;45.736;13.926;2023-02-28T09:12:32;98219.78;;;1.49;100.00
52983;BME280;48698;45.736;13.926;2023-02-28T09:17:36;98133.66;;;1.18;100.00
52983;BME280;48698;45.736;13.926;2023-02-28T09:22:40;98155.28;;;1.45;100.00
52983;BME280;48698;45.736;13.926;2023-02-28T09:27:43;98196.00;;;1.83;100.00
52983;BME280;48698;45.736;13.926;2023-02-28T09:32:49;98220.31;;;2.01;100.00
52983;BME280;48698;45.736;13.926;2023-02-28T09:37:54;98221.28;;;1.87;100.00
52983;BME280;48698;45.736;13.926;2023-02-28T09:42:59;97944.75;;;0.81;100.00
52983;BME280;48698;45.736;13.926;2023-02-28T09:48:09;98215.25;;;2.69;100.00
52983;BME280;48698;45.736;13.926;2023-02-28T09:53:26;98229.94;;;2.86;100.00
52983;BME280;48698;45.736;13.926;2023-02-28T10:03:49;98166.03;;;2.92;100.00
52983;BME280;48698;45.736;13.926;2023-02-28T10:09:14;97940.00;;;1.25;100.00
52983;BME280;48698;45.736;13.926;2023-02-28T10:14:23;98009.53;;;2.28;100.00
52983;BME280;48698;45.736;13.926;2023-02-28T10:19:34;97978.88;;;1.62;100.00
52983;BME280;48698;45.736;13.926;2023-02-28T10:24:44;98125.75;;;2.97;100.00
52983;BME280;48698;45.736;13.926;2023-02-28T10:29:52;98233.56;;;3.46;100.00
52983;BME280;48698;45.736;13.926;2023-02-28T10:45:22;98231.66;;;3.56;100.00
52983;BME280;48698;45.736;13.926;2023-02-28T10:56:02;98227.03;;;3.73;100.00
52983;BME280;48698;45.736;13.926;2023-02-28T11:01:13;98183.72;;;3.98;100.00
52983;BME280;48698;45.736;13.926;2023-02-28T11:06:35;98209.19;;;3.35;100.00
52983;BME280;48698;45.736;13.926;2023-02-28T11:11:44;98138.50;;;3.22;100.00
52983;BME280;48698;45.736;13.926;2023-02-28T11:16:48;97967.81;;;2.12;100.00
52983;BME280;48698;45.736;13.926;2023-02-28T11:21:57;98186.56;;;3.25;100.00
52983;BME280;48698;45.736;13.926;2023-02-28T11:27:01;98146.91;;;2.84;100.00
52983;BME280;48698;45.736;13.926;2023-02-28T11:32:12;98101.94;;;2.44;100.00
52983;BME280;48698;45.736;13.926;2023-02-28T11:37:18;98205.16;;;3.10;100.00
52983;BME280;48698;45.736;13.926;2023-02-28T11:47:58;98183.03;;;3.31;100.00
52983;BME280;48698;45.736;13.926;2023-02-28T11:58:44;98149.22;;;3.06;100.00
52983;BME280;48698;45.736;13.926;2023-02-28T12:09:17;98162.06;;;3.26;100.00
52983;BME280;48698;45.736;13.926;2023-02-28T12:30:58;98044.78;;;2.70;100.00
52983;BME280;48698;45.736;13.926;2023-02-28T12:36:09;98151.56;;;3.26;100.00
52983;BME280;48698;45.736;13.926;2023-02-28T12:41:17;98119.16;;;3.29;100.00
52983;BME280;48698;45.736;13.926;2023-02-28T12:46:34;98058.25;;;3.05;100.00
52983;BME280;48698;45.736;13.926;2023-02-28T12:51:39;97975.94;;;2.57;100.00
52983;BME280;48698;45.736;13.926;2023-02-28T12:56:44;98086.88;;;3.22;100.00
52983;BME280;48698;45.736;13.926;2023-02-28T13:02:10;98135.31;;;3.58;100.00
52983;BME280;48698;45.736;13.926;2023-02-28T13:07:31;98110.28;;;3.36;100.00
52983;BME280;48698;45.736;13.926;2023-02-28T13:12:48;98122.66;;;3.29;100.00
52983;BME280;48698;45.736;13.926;2023-02-28T13:18:01;97796.09;;;1.25;100.00
52983;BME280;48698;45.736;13.926;2023-02-28T13:23:03;97913.41;;;2.32;100.00
52983;BME280;48698;45.736;13.926;2023-02-28T13:28:13;98067.97;;;2.99;100.00
52983;BME280;48698;45.736;13.926;2023-02-28T13:33:37;98094.94;;;3.67;100.00
52983;BME280;48698;45.736;13.926;2023-02-28T13:39:11;98124.19;;;3.42;100.00
52983;BME280;48698;45.736;13.926;2023-02-28T13:44:26;97997.72;;;2.61;100.00
52983;BME280;48698;45.736;13.926;2023-02-28T13:49:36;98037.47;;;2.93;100.00
52983;BME280;48698;45.736;13.926;2023-02-28T14:05:21;98029.25;;;2.58;100.00
52983;BME280;48698;45.736;13.926;2023-02-28T14:10:31;98060.34;;;2.82;100.00
52983;BME280;48698;45.736;13.926;2023-02-28T14:15:43;98056.94;;;2.77;100.00
52983;BME280;48698;45.736;13.926;2023-02-28T14:20:49;97879.41;;;1.60;100.00
52983;BME280;48698;45.736;13.926;2023-02-28T14:31:15;97875.78;;;1.72;100.00
52983;BME280;48698;45.736;13.926;2023-02-28T14:36:27;98075.34;;;2.74;100.00
52983;BME280;48698;45.736;13.926;2023-02-28T14:41:39;97921.38;;;2.23;100.00
52983;BME280;48698;45.736;13.926;2023-02-28T14:46:44;97987.53;;;2.40;100.00
52983;BME280;48698;45.736;13.926;2023-02-28T14:52:02;97829.44;;;1.77;100.00
52983;BME280;48698;45.736;13.926;2023-02-28T14:57:05;97953.22;;;2.56;100.00
52983;BME280;48698;45.736;13.926;2023-02-28T15:07:24;98060.53;;;2.69;100.00
52983;BME280;48698;45.736;13.926;2023-02-28T15:12:30;97775.69;;;0.80;100.00
52983;BME280;48698;45.736;13.926;2023-02-28T15:17:34;97994.16;;;2.01;100.00
52983;BME280;48698;45.736;13.926;2023-02-28T15:22:37;98025.19;;;2.34;100.00
52983;BME280;48698;45.736;13.926;2023-02-28T15:27:47;97966.25;;;1.97;100.00
52983;BME280;48698;45.736;13.926;2023-02-28T15:38:25;97933.50;;;1.60;100.00
52983;BME280;48698;45.736;13.926;2023-02-28T15:43:34;98041.97;;;2.17;100.00
52983;BME280;48698;45.736;13.926;2023-02-28T15:53:50;97860.66;;;1.23;100.00
52983;BME280;48698;45.736;13.926;2023-02-28T15:58:59;97769.09;;;0.45;100.00
52983;BME280;48698;45.736;13.926;2023-02-28T16:04:06;97806.25;;;0.75;100.00
52983;BME280;48698;45.736;13.926;2023-02-28T16:09:16;98062.94;;;2.17;100.00
52983;BME280;48698;45.736;13.926;2023-02-28T16:14:21;97927.44;;;1.56;100.00
52983;BME280;48698;45.736;13.926;2023-02-28T16:19:39;97937.16;;;1.48;100.00
52983;BME280;48698;45.736;13.926;2023-02-28T16:24:42;97864.38;;;0.99;100.00
52983;BME280;48698;45.736;13.926;2023-02-28T16:29:45;97905.06;;;1.32;100.00
52983;BME280;48698;45.736;13.926;2023-02-28T16:34:49;97851.41;;;0.92;100.00
52983;BME280;48698;45.736;13.926;2023-02-28T16:39:51;97745.78;;;0.23;100.00
52983;BME280;48698;45.736;13.926;2023-02-28T16:44:55;97875.97;;;0.76;100.00
52983;BME280;48698;45.736;13.926;2023-02-28T16:49:59;98058.22;;;1.68;100.00
52983;BME280;48698;45.736;13.926;2023-02-28T16:55:02;97875.19;;;0.60;100.00
52983;BME280;48698;45.736;13.926;2023-02-28T17:00:06;98039.06;;;1.65;100.00
52983;BME280;48698;45.736;13.926;2023-02-28T17:05:11;97788.53;;;0.13;100.00
52983;BME280;48698;45.736;13.926;2023-02-28T17:10:19;97881.25;;;0.68;100.00
52983;BME280;48698;45.736;13.926;2023-02-28T17:15:22;97809.34;;;0.20;100.00
52983;BME280;48698;45.736;13.926;2023-02-28T17:20:24;98036.53;;;1.55;100.00
52983;BME280;48698;45.736;13.926;2023-02-28T17:25:28;97741.88;;;-0.34;100.00
52983;BME280;48698;45.736;13.926;2023-02-28T17:30:33;98064.50;;;1.50;100.00
52983;BME280;48698;45.736;13.926;2023-02-28T17:35:36;98027.09;;;1.36;100.00
52983;BME280;48698;45.736;13.926;2023-02-28T17:40:39;98040.13;;;1.45;100.00
52983;BME280;48698;45.736;13.926;2023-02-28T17:45:44;98002.78;;;1.25;100.00
52983;BME280;48698;45.736;13.926;2023-02-28T17:50:47;98060.94;;;1.58;100.00
52983;BME280;48698;45.736;13.926;2023-02-28T17:55:50;98026.28;;;1.31;100.00
52983;BME280;48698;45.736;13.926;2023-02-28T18:00:52;98028.00;;;1.35;100.00
52983;BME280;48698;45.736;13.926;2023-02-28T18:05:56;98015.81;;;1.31;100.00
52983;BME280;48698;45.736;13.926;2023-02-28T18:10:59;98008.81;;;1.33;100.00
52983;BME280;48698;45.736;13.926;2023-02-28T18:16:15;98009.63;;;1.41;100.00
52983;BME280;48698;45.736;13.926;2023-02-28T18:21:19;97976.63;;;1.25;100.00
52983;BME280;48698;45.736;13.926;2023-02-28T18:26:22;98066.22;;;1.54;100.00
52983;BME280;48698;45.736;13.926;2023-02-28T18:31:25;98019.22;;;1.39;100.00
52983;BME280;48698;45.736;13.926;2023-02-28T18:36:27;97961.09;;;1.07;100.00
52983;BME280;48698;45.736;13.926;2023-02-28T18:41:30;98019.34;;;1.27;100.00
52983;BME280;48698;45.736;13.926;2023-02-28T18:46:33;98066.19;;;1.58;100.00
52983;BME280;48698;45.736;13.926;2023-02-28T18:51:36;98018.53;;;1.22;100.00
52983;BME280;48698;45.736;13.926;2023-02-28T18:56:39;98065.34;;;1.52;100.00
52983;BME280;48698;45.736;13.926;2023-02-28T19:01:42;98075.81;;;1.55;100.00
52983;BME280;48698;45.736;13.926;2023-02-28T19:06:55;98009.81;;;1.20;100.00
52983;BME280;48698;45.736;13.926;2023-02-28T19:11:58;97918.72;;;0.69;100.00
52983;BME280;48698;45.736;13.926;2023-02-28T19:17:01;97945.56;;;0.87;100.00
52983;BME280;48698;45.736;13.926;2023-02-28T19:22:04;98060.97;;;1.54;100.00
52983;BME280;48698;45.736;13.926;2023-02-28T19:27:06;97967.25;;;1.00;100.00
52983;BME280;48698;45.736;13.926;2023-02-28T19:32:09;97953.34;;;0.95;100.00
52983;BME280;48698;45.736;13.926;2023-02-28T19:37:12;98000.25;;;1.19;100.00
52983;BME280;48698;45.736;13.926;2023-02-28T19:42:16;97713.16;;;-0.31;100.00
52983;BME280;48698;45.736;13.926;2023-02-28T19:47:19;97964.47;;;1.17;100.00
52983;BME280;48698;45.736;13.926;2023-02-28T19:52:23;98042.56;;;1.64;100.00
52983;BME280;48698;45.736;13.926;2023-02-28T19:57:26;97995.75;;;1.32;100.00
52983;BME280;48698;45.736;13.926;2023-02-28T20:02:29;97960.84;;;1.36;100.00
52983;BME280;48698;45.736;13.926;2023-02-28T20:07:31;97931.44;;;1.07;100.00
52983;BME280;48698;45.736;13.926;2023-02-28T20:12:34;97965.09;;;1.44;100.00
52983;BME280;48698;45.736;13.926;2023-02-28T20:17:36;97972.00;;;1.51;100.00
52983;BME280;48698;45.736;13.926;2023-02-28T20:22:39;97838.44;;;0.83;100.00
52983;BME280;48698;45.736;13.926;2023-02-28T20:27:42;97875.72;;;1.01;100.00
52983;BME280;48698;45.736;13.926;2023-02-28T20:32:44;97977.19;;;1.56;100.00
52983;BME280;48698;45.736;13.926;2023-02-28T20:37:47;97943.59;;;1.14;100.00
52983;BME280;48698;45.736;13.926;2023-02-28T20:42:50;97944.34;;;1.29;100.00
52983;BME280;48698;45.736;13.926;2023-02-28T20:47:53;98002.41;;;1.65;100.00
52983;BME280;48698;45.736;13.926;2023-02-28T20:52:56;97972.97;;;1.41;100.00
52983;BME280;48698;45.736;13.926;2023-02-28T20:57:59;97991.91;;;1.68;100.00
52983;BME280;48698;45.736;13.926;2023-02-28T21:03:01;97782.19;;;0.41;100.00
52983;BME280;48698;45.736;13.926;2023-02-28T21:08:04;97966.88;;;1.39;100.00
52983;BME280;48698;45.736;13.926;2023-02-28T21:13:07;97979.06;;;1.43;100.00
52983;BME280;48698;45.736;13.926;2023-02-28T21:18:09;97917.53;;;1.04;100.00
52983;BME280;48698;45.736;13.926;2023-02-28T21:23:12;97761.50;;;0.20;100.00
52983;BME280;48698;45.736;13.926;2023-02-28T21:28:15;97897.63;;;0.87;100.00
52983;BME280;48698;45.736;13.926;2023-02-28T21:33:18;97630.75;;;-0.63;100.00
52983;BME280;48698;45.736;13.926;2023-02-28T21:38:20;97976.66;;;1.22;100.00
52983;BME280;48698;45.736;13.926;2023-02-28T21:43:23;97968.69;;;1.33;100.00
52983;BME280;48698;45.736;13.926;2023-02-28T21:48:27;97758.19;;;-0.07;100.00
52983;BME280;48698;45.736;13.926;2023-02-28T21:53:31;97960.00;;;1.32;100.00
52983;BME280;48698;45.736;13.926;2023-02-28T21:58:35;97861.78;;;0.96;100.00
52983;BME280;48698;45.736;13.926;2023-02-28T22:03:38;97952.91;;;1.40;100.00
52983;BME280;48698;45.736;13.926;2023-02-28T22:08:51;97979.97;;;1.42;100.00
52983;BME280;48698;45.736;13.926;2023-02-28T22:13:56;97901.91;;;0.97;100.00
52983;BME280;48698;45.736;13.926;2023-02-28T22:18:59;97954.09;;;1.11;100.00
52983;BME280;48698;45.736;13.926;2023-02-28T22:24:07;97849.94;;;0.62;100.00
52983;BME280;48698;45.736;13.926;2023-02-28T22:29:10;97996.53;;;1.41;100.00
52983;BME280;48698;45.736;13.926;2023-02-28T22:34:13;97962.69;;;1.23;100.00
52983;BME280;48698;45.736;13.926;2023-02-28T22:39:16;97993.06;;;1.38;100.00
52983;BME280;48698;45.736;13.926;2023-02-28T22:44:23;97893.38;;;0.75;100.00
52983;BME280;48698;45.736;13.926;2023-02-28T22:49:27;98005.25;;;1.40;100.00
52983;BME280;48698;45.736;13.926;2023-02-28T22:54:31;97947.94;;;1.13;100.00
52983;BME280;48698;45.736;13.926;2023-02-28T22:59:43;98014.00;;;1.38;100.00
52983;BME280;48698;45.736;13.926;2023-02-28T23:04:46;97939.38;;;0.99;100.00
52983;BME280;48698;45.736;13.926;2023-02-28T23:09:49;97865.53;;;0.71;100.00
52983;BME280;48698;45.736;13.926;2023-02-28T23:14:52;97872.59;;;0.62;100.00
52983;BME280;48698;45.736;13.926;2023-02-28T23:19:55;97954.13;;;1.04;100.00
52983;BME280;48698;45.736;13.926;2023-02-28T23:24:57;97992.31;;;1.27;100.00
52983;BME280;48698;45.736;13.926;2023-02-28T23:30:00;97986.06;;;1.41;100.00
52983;BME280;48698;45.736;13.926;2023-02-28T23:35:05;97990.59;;;1.26;100.00
52983;BME280;48698;45.736;13.926;2023-02-28T23:40:09;97995.66;;;1.41;100.00
52983;BME280;48698;45.736;13.926;2023-02-28T23:45:12;97698.31;;;-0.26;100.00
52983;BME280;48698;45.736;13.926;2023-02-28T23:50:15;97670.56;;;-0.36;100.00
52983;BME280;48698;45.736;13.926;2023-02-28T23:55:18;97907.97;;;1.02;100.00
